sensor_id;sensor_type;location;lat;lon;timestamp;pressure;altitude;pressure_sealevel;temperature
19061;BMP280;9663;48.996;8.334;2023-08-30T00:00:16;99626.47;;;21.51
19061;BMP280;9663;48.996;8.334;2023-08-30T00:02:45;99630.63;;;21.54
19061;BMP280;9663;48.996;8.334;2023-08-30T00:05:11;99630.44;;;21.57
19061;BMP280;9663;48.996;8.334;2023-08-30T00:07:36;99623.63;;;21.56
19061;BMP280;9663;48.996;8.334;2023-08-30T00:10:02;99622.91;;;21.54
19061;BMP280;9663;48.996;8.334;2023-08-30T00:12:29;99625.47;;;21.54
19061;BMP280;9663;48.996;8.334;2023-08-30T00:14:55;99618.66;;;21.53
19061;BMP280;9663;48.996;8.334;2023-08-30T00:17:22;99625.47;;;21.54
19061;BMP280;9663;48.996;8.334;2023-08-30T00:19:48;99616.06;;;21.53
19061;BMP280;9663;48.996;8.334;2023-08-30T00:22:14;99624.72;;;21.52
19061;BMP280;9663;48.996;8.334;2023-08-30T00:24:40;99628.97;;;21.53
19061;BMP280;9663;48.996;8.334;2023-08-30T00:27:06;99634.22;;;21.51
19061;BMP280;9663;48.996;8.334;2023-08-30T00:29:31;99623.81;;;21.53
19061;BMP280;9663;48.996;8.334;2023-08-30T00:31:57;99626.31;;;21.54
19061;BMP280;9663;48.996;8.334;2023-08-30T00:34:23;99627.13;;;21.55
19061;BMP280;9663;48.996;8.334;2023-08-30T00:36:49;99624.63;;;21.53
19061;BMP280;9663;48.996;8.334;2023-08-30T00:39:14;99628.78;;;21.56
19061;BMP280;9663;48.996;8.334;2023-08-30T00:41:40;99628.63;;;21.59
19061;BMP280;9663;48.996;8.334;2023-08-30T00:44:06;99620.75;;;21.60
19061;BMP280;9663;48.996;8.334;2023-08-30T00:46:33;99630.19;;;21.61
19061;BMP280;9663;48.996;8.334;2023-08-30T00:49:00;99629.34;;;21.61
19061;BMP280;9663;48.996;8.334;2023-08-30T00:51:27;99621.69;;;21.59
19061;BMP280;9663;48.996;8.334;2023-08-30T00:53:55;99618.38;;;21.57
19061;BMP280;9663;48.996;8.334;2023-08-30T00:56:21;99624.47;;;21.56
19061;BMP280;9663;48.996;8.334;2023-08-30T00:58:50;99613.22;;;21.57
19061;BMP280;9663;48.996;8.334;2023-08-30T01:01:17;99617.38;;;21.60
19061;BMP280;9663;48.996;8.334;2023-08-30T01:03:43;99606.06;;;21.62
19061;BMP280;9663;48.996;8.334;2023-08-30T01:06:09;99609.38;;;21.64
19061;BMP280;9663;48.996;8.334;2023-08-30T01:08:37;99614.44;;;21.66
19061;BMP280;9663;48.996;8.334;2023-08-30T01:14:18;99607.13;;;21.58
19061;BMP280;9663;48.996;8.334;2023-08-30T01:16:46;99609.38;;;21.64
19061;BMP280;9663;48.996;8.334;2023-08-30T01:19:54;99601.41;;;21.53
19061;BMP280;9663;48.996;8.334;2023-08-30T01:22:39;99609.72;;;21.58
19061;BMP280;9663;48.996;8.334;2023-08-30T01:27:54;99608.06;;;21.57
19061;BMP280;9663;48.996;8.334;2023-08-30T01:30:22;99614.06;;;21.58
19061;BMP280;9663;48.996;8.334;2023-08-30T01:32:50;99604.72;;;21.55
19061;BMP280;9663;48.996;8.334;2023-08-30T01:35:16;99602.06;;;21.57
19061;BMP280;9663;48.996;8.334;2023-08-30T01:37:46;99601.25;;;21.56
19061;BMP280;9663;48.996;8.334;2023-08-30T01:40:15;99602.16;;;21.55
19061;BMP280;9663;48.996;8.334;2023-08-30T01:42:43;99605.56;;;21.56
19061;BMP280;9663;48.996;8.334;2023-08-30T01:45:11;99600.34;;;21.57
19061;BMP280;9663;48.996;8.334;2023-08-30T01:47:41;99611.47;;;21.58
19061;BMP280;9663;48.996;8.334;2023-08-30T01:50:08;99602.81;;;21.59
19061;BMP280;9663;48.996;8.334;2023-08-30T01:52:36;99603.66;;;21.59
19061;BMP280;9663;48.996;8.334;2023-08-30T01:55:03;99600.03;;;21.62
19061;BMP280;9663;48.996;8.334;2023-08-30T01:57:28;99608.53;;;21.64
19061;BMP280;9663;48.996;8.334;2023-08-30T01:59:54;99603.38;;;21.64
19061;BMP280;9663;48.996;8.334;2023-08-30T02:02:20;99600.81;;;21.64
19061;BMP280;9663;48.996;8.334;2023-08-30T02:04:45;99602.44;;;21.65
19061;BMP280;9663;48.996;8.334;2023-08-30T02:07:22;99594.69;;;21.65
19061;BMP280;9663;48.996;8.334;2023-08-30T02:10:00;99600.72;;;21.65
19061;BMP280;9663;48.996;8.334;2023-08-30T02:12:35;99596.28;;;21.67
19061;BMP280;9663;48.996;8.334;2023-08-30T02:15:05;99597.09;;;21.68
19061;BMP280;9663;48.996;8.334;2023-08-30T02:17:35;99591.03;;;21.69
19061;BMP280;9663;48.996;8.334;2023-08-30T02:20:01;99589.28;;;21.69
19061;BMP280;9663;48.996;8.334;2023-08-30T02:22:30;99589.94;;;21.73
19061;BMP280;9663;48.996;8.334;2023-08-30T02:24:56;99596.00;;;21.72
19061;BMP280;9663;48.996;8.334;2023-08-30T02:27:21;99599.50;;;21.71
19061;BMP280;9663;48.996;8.334;2023-08-30T02:29:47;99592.84;;;21.67
19061;BMP280;9663;48.996;8.334;2023-08-30T02:32:13;99597.28;;;21.65
19061;BMP280;9663;48.996;8.334;2023-08-30T02:34:38;99598.31;;;21.62
19061;BMP280;9663;48.996;8.334;2023-08-30T02:37:04;99598.31;;;21.62
19061;BMP280;9663;48.996;8.334;2023-08-30T02:39:30;99598.41;;;21.61
19061;BMP280;9663;48.996;8.334;2023-08-30T02:41:55;99594.22;;;21.58
19061;BMP280;9663;48.996;8.334;2023-08-30T02:44:21;99599.47;;;21.57
19061;BMP280;9663;48.996;8.334;2023-08-30T02:46:47;99602.16;;;21.55
19061;BMP280;9663;48.996;8.334;2023-08-30T02:49:12;99596.97;;;21.55
19061;BMP280;9663;48.996;8.334;2023-08-30T02:51:38;99599.47;;;21.57
19061;BMP280;9663;48.996;8.334;2023-08-30T02:54:04;99601.16;;;21.58
19061;BMP280;9663;48.996;8.334;2023-08-30T02:56:32;99595.16;;;21.57
19061;BMP280;9663;48.996;8.334;2023-08-30T02:58:57;99599.47;;;21.57
19061;BMP280;9663;48.996;8.334;2023-08-30T03:01:23;99592.75;;;21.54
19061;BMP280;9663;48.996;8.334;2023-08-30T03:03:49;99605.00;;;21.51
19061;BMP280;9663;48.996;8.334;2023-08-30T03:06:14;99594.69;;;21.51
19061;BMP280;9663;48.996;8.334;2023-08-30T03:08:40;99596.41;;;21.50
19061;BMP280;9663;48.996;8.334;2023-08-30T03:11:13;99593.75;;;21.52
19061;BMP280;9663;48.996;8.334;2023-08-30T03:13:39;99593.03;;;21.50
19061;BMP280;9663;48.996;8.334;2023-08-30T03:16:15;99585.44;;;21.47
19061;BMP280;9663;48.996;8.334;2023-08-30T03:18:43;99587.13;;;21.48
19061;BMP280;9663;48.996;8.334;2023-08-30T03:21:10;99585.44;;;21.47
19061;BMP280;9663;48.996;8.334;2023-08-30T03:23:36;99587.13;;;21.48
19061;BMP280;9663;48.996;8.334;2023-08-30T03:26:13;99578.56;;;21.47
19061;BMP280;9663;48.996;8.334;2023-08-30T03:28:40;99587.22;;;21.46
19061;BMP280;9663;48.996;8.334;2023-08-30T03:31:15;99589.88;;;21.45
19061;BMP280;9663;48.996;8.334;2023-08-30T03:33:42;99590.69;;;21.45
19061;BMP280;9663;48.996;8.334;2023-08-30T03:36:10;99592.47;;;21.45
19061;BMP280;9663;48.996;8.334;2023-08-30T03:38:37;99598.56;;;21.44
19061;BMP280;9663;48.996;8.334;2023-08-30T03:41:04;99589.88;;;21.45
19061;BMP280;9663;48.996;8.334;2023-08-30T03:43:31;99591.56;;;21.46
19061;BMP280;9663;48.996;8.334;2023-08-30T03:45:59;99588.13;;;21.45
19061;BMP280;9663;48.996;8.334;2023-08-30T03:48:24;99578.66;;;21.46
19061;BMP280;9663;48.996;8.334;2023-08-30T03:50:50;99588.97;;;21.46
19061;BMP280;9663;48.996;8.334;2023-08-30T03:53:16;99578.66;;;21.46
19061;BMP280;9663;48.996;8.334;2023-08-30T03:55:41;99587.22;;;21.46
19061;BMP280;9663;48.996;8.334;2023-08-30T03:58:07;99583.81;;;21.46
19061;BMP280;9663;48.996;8.334;2023-08-30T04:00:36;99585.53;;;21.45
19061;BMP280;9663;48.996;8.334;2023-08-30T04:03:04;99588.97;;;21.46
19061;BMP280;9663;48.996;8.334;2023-08-30T04:05:33;99584.72;;;21.45
19061;BMP280;9663;48.996;8.334;2023-08-30T04:08:00;99583.09;;;21.44
19061;BMP280;9663;48.996;8.334;2023-08-30T04:10:26;99581.41;;;21.43
19061;BMP280;9663;48.996;8.334;2023-08-30T04:12:51;99580.56;;;21.42
19061;BMP280;9663;48.996;8.334;2023-08-30T04:15:17;99581.47;;;21.42
19061;BMP280;9663;48.996;8.334;2023-08-30T04:17:43;99586.63;;;21.42
19061;BMP280;9663;48.996;8.334;2023-08-30T04:20:09;99584.84;;;21.42
19061;BMP280;9663;48.996;8.334;2023-08-30T04:22:36;99581.41;;;21.43
19061;BMP280;9663;48.996;8.334;2023-08-30T04:25:03;99579.56;;;21.45
19061;BMP280;9663;48.996;8.334;2023-08-30T04:27:29;99577.06;;;21.43
19061;BMP280;9663;48.996;8.334;2023-08-30T04:29:55;99576.97;;;21.45
19061;BMP280;9663;48.996;8.334;2023-08-30T04:32:20;99582.88;;;21.47
19061;BMP280;9663;48.996;8.334;2023-08-30T04:34:46;99581.22;;;21.46
19061;BMP280;9663;48.996;8.334;2023-08-30T04:37:11;99587.31;;;21.45
19061;BMP280;9663;48.996;8.334;2023-08-30T04:39:37;99589.97;;;21.43
19061;BMP280;9663;48.996;8.334;2023-08-30T04:42:03;99591.72;;;21.43
19061;BMP280;9663;48.996;8.334;2023-08-30T04:44:29;99592.59;;;21.42
19061;BMP280;9663;48.996;8.334;2023-08-30T04:46:57;99579.69;;;21.42
19061;BMP280;9663;48.996;8.334;2023-08-30T04:49:23;99589.19;;;21.42
19061;BMP280;9663;48.996;8.334;2023-08-30T04:51:51;99596.13;;;21.41
19061;BMP280;9663;48.996;8.334;2023-08-30T04:54:16;99593.53;;;21.41
19061;BMP280;9663;48.996;8.334;2023-08-30T04:56:42;99584.84;;;21.42
19061;BMP280;9663;48.996;8.334;2023-08-30T04:59:08;99589.16;;;21.43
19061;BMP280;9663;48.996;8.334;2023-08-30T05:01:33;99588.25;;;21.44
19061;BMP280;9663;48.996;8.334;2023-08-30T05:03:59;99574.50;;;21.43
19061;BMP280;9663;48.996;8.334;2023-08-30T05:06:26;99583.09;;;21.44
19061;BMP280;9663;48.996;8.334;2023-08-30T05:08:51;99579.56;;;21.45
19061;BMP280;9663;48.996;8.334;2023-08-30T05:11:17;99574.41;;;21.45
19061;BMP280;9663;48.996;8.334;2023-08-30T05:13:42;99587.22;;;21.46
19061;BMP280;9663;48.996;8.334;2023-08-30T05:16:08;99590.44;;;21.50
19061;BMP280;9663;48.996;8.334;2023-08-30T05:18:34;99595.50;;;21.51
19061;BMP280;9663;48.996;8.334;2023-08-30T05:20:59;99590.09;;;21.56
19061;BMP280;9663;48.996;8.334;2023-08-30T05:23:25;99597.53;;;21.60
19061;BMP280;9663;48.996;8.334;2023-08-30T05:25:50;99593.16;;;21.62
19061;BMP280;9663;48.996;8.334;2023-08-30T05:28:16;99593.78;;;21.66
19061;BMP280;9663;48.996;8.334;2023-08-30T05:30:43;99592.78;;;21.68
19061;BMP280;9663;48.996;8.334;2023-08-30T05:33:09;99590.94;;;21.70
19061;BMP280;9663;48.996;8.334;2023-08-30T05:35:35;99587.25;;;21.74
19061;BMP280;9663;48.996;8.334;2023-08-30T05:38:00;99587.81;;;21.79
19061;BMP280;9663;48.996;8.334;2023-08-30T05:40:26;99583.38;;;21.81
19061;BMP280;9663;48.996;8.334;2023-08-30T05:42:51;99586.59;;;21.85
19061;BMP280;9663;48.996;8.334;2023-08-30T05:45:17;99587.16;;;21.89
19061;BMP280;9663;48.996;8.334;2023-08-30T05:47:43;99583.41;;;21.95
19061;BMP280;9663;48.996;8.334;2023-08-30T05:50:09;99589.94;;;22.00
19061;BMP280;9663;48.996;8.334;2023-08-30T05:52:35;99603.41;;;22.05
19061;BMP280;9663;48.996;8.334;2023-08-30T05:55:00;99598.59;;;22.13
19061;BMP280;9663;48.996;8.334;2023-08-30T05:57:26;99593.94;;;22.20
19061;BMP280;9663;48.996;8.334;2023-08-30T05:59:53;99591.81;;;22.26
19061;BMP280;9663;48.996;8.334;2023-08-30T06:02:18;99582.13;;;22.30
19061;BMP280;9663;48.996;8.334;2023-08-30T06:04:44;99587.09;;;22.32
19061;BMP280;9663;48.996;8.334;2023-08-30T06:07:10;99578.22;;;22.36
19061;BMP280;9663;48.996;8.334;2023-08-30T06:09:35;99583.28;;;22.38
19061;BMP280;9663;48.996;8.334;2023-08-30T06:12:01;99581.72;;;22.35
19061;BMP280;9663;48.996;8.334;2023-08-30T06:14:27;99574.91;;;22.34
19061;BMP280;9663;48.996;8.334;2023-08-30T06:16:53;99574.06;;;22.34
19061;BMP280;9663;48.996;8.334;2023-08-30T06:19:18;99575.72;;;22.35
19061;BMP280;9663;48.996;8.334;2023-08-30T06:21:44;99583.28;;;22.38
19061;BMP280;9663;48.996;8.334;2023-08-30T06:24:09;99579.69;;;22.40
19061;BMP280;9663;48.996;8.334;2023-08-30T06:26:35;99588.81;;;22.46
19061;BMP280;9663;48.996;8.334;2023-08-30T06:29:01;99584.19;;;22.51
19061;BMP280;9663;48.996;8.334;2023-08-30T06:31:26;99581.44;;;22.54
19061;BMP280;9663;48.996;8.334;2023-08-30T06:33:54;99574.22;;;22.59
19061;BMP280;9663;48.996;8.334;2023-08-30T06:36:20;99590.97;;;22.66
19061;BMP280;9663;48.996;8.334;2023-08-30T06:38:48;99588.31;;;22.67
19061;BMP280;9663;48.996;8.334;2023-08-30T06:41:13;99582.09;;;22.70
19061;BMP280;9663;48.996;8.334;2023-08-30T06:43:39;99582.72;;;22.73
19061;BMP280;9663;48.996;8.334;2023-08-30T06:46:05;99576.47;;;22.77
19061;BMP280;9663;48.996;8.334;2023-08-30T06:48:30;99578.84;;;22.80
19061;BMP280;9663;48.996;8.334;2023-08-30T06:50:59;99582.88;;;22.84
19061;BMP280;9663;48.996;8.334;2023-08-30T06:53:28;99578.91;;;22.92
19061;BMP280;9663;48.996;8.334;2023-08-30T06:55:58;99577.59;;;22.99
19061;BMP280;9663;48.996;8.334;2023-08-30T06:58:24;99574.41;;;23.08
19061;BMP280;9663;48.996;8.334;2023-08-30T07:00:50;99573.09;;;23.15
19061;BMP280;9663;48.996;8.334;2023-08-30T07:03:15;99576.72;;;23.25
19061;BMP280;9663;48.996;8.334;2023-08-30T07:05:41;99573.00;;;23.29
19061;BMP280;9663;48.996;8.334;2023-08-30T07:08:09;99578.78;;;23.32
19061;BMP280;9663;48.996;8.334;2023-08-30T07:10:35;99583.88;;;23.34
19061;BMP280;9663;48.996;8.334;2023-08-30T07:13:00;99577.88;;;23.33
19061;BMP280;9663;48.996;8.334;2023-08-30T07:15:26;99581.50;;;23.31
19061;BMP280;9663;48.996;8.334;2023-08-30T07:17:52;99579.94;;;23.28
19061;BMP280;9663;48.996;8.334;2023-08-30T07:20:17;99574.88;;;23.27
19061;BMP280;9663;48.996;8.334;2023-08-30T07:22:43;99572.06;;;23.30
19061;BMP280;9663;48.996;8.334;2023-08-30T07:25:09;99571.88;;;23.33
19061;BMP280;9663;48.996;8.334;2023-08-30T07:27:36;99566.41;;;23.37
19061;BMP280;9663;48.996;8.334;2023-08-30T07:30:03;99558.44;;;23.40
19061;BMP280;9663;48.996;8.334;2023-08-30T07:32:30;99550.47;;;23.43
19061;BMP280;9663;48.996;8.334;2023-08-30T07:34:55;99551.81;;;23.49
19061;BMP280;9663;48.996;8.334;2023-08-30T07:37:21;99562.66;;;23.54
19061;BMP280;9663;48.996;8.334;2023-08-30T07:39:48;99559.06;;;23.56
19061;BMP280;9663;48.996;8.334;2023-08-30T07:42:14;99556.28;;;23.59
19061;BMP280;9663;48.996;8.334;2023-08-30T07:44:41;99563.63;;;23.65
19061;BMP280;9663;48.996;8.334;2023-08-30T07:47:07;99556.41;;;23.70
19061;BMP280;9663;48.996;8.334;2023-08-30T07:49:33;99563.75;;;23.76
19061;BMP280;9663;48.996;8.334;2023-08-30T07:51:58;99556.41;;;23.82
19061;BMP280;9663;48.996;8.334;2023-08-30T07:54:24;99556.28;;;23.96
19061;BMP280;9663;48.996;8.334;2023-08-30T07:56:49;99560.72;;;24.06
19061;BMP280;9663;48.996;8.334;2023-08-30T07:59:15;99553.56;;;24.10
19061;BMP280;9663;48.996;8.334;2023-08-30T08:01:41;99564.75;;;24.10
19061;BMP280;9663;48.996;8.334;2023-08-30T08:04:06;99565.56;;;24.11
19061;BMP280;9663;48.996;8.334;2023-08-30T08:06:32;99564.53;;;24.13
19061;BMP280;9663;48.996;8.334;2023-08-30T08:08:58;99557.91;;;24.22
19061;BMP280;9663;48.996;8.334;2023-08-30T08:11:25;99560.81;;;24.30
19061;BMP280;9663;48.996;8.334;2023-08-30T08:13:50;99565.34;;;24.39
19061;BMP280;9663;48.996;8.334;2023-08-30T08:16:16;99551.53;;;24.50
19061;BMP280;9663;48.996;8.334;2023-08-30T08:18:41;99559.25;;;24.63
19061;BMP280;9663;48.996;8.334;2023-08-30T08:21:07;99559.41;;;24.72
19061;BMP280;9663;48.996;8.334;2023-08-30T08:23:33;99552.31;;;24.87
19061;BMP280;9663;48.996;8.334;2023-08-30T08:26:00;99561.81;;;24.98
19061;BMP280;9663;48.996;8.334;2023-08-30T08:28:26;99560.31;;;25.07
19061;BMP280;9663;48.996;8.334;2023-08-30T08:30:51;99559.28;;;25.20
19061;BMP280;9663;48.996;8.334;2023-08-30T08:33:18;99557.09;;;25.37
19061;BMP280;9663;48.996;8.334;2023-08-30T08:35:44;99560.66;;;25.58
19061;BMP280;9663;48.996;8.334;2023-08-30T08:38:10;99562.38;;;25.81
19061;BMP280;9663;48.996;8.334;2023-08-30T08:40:40;99566.41;;;25.85
19061;BMP280;9663;48.996;8.334;2023-08-30T08:43:06;99567.13;;;25.87
19061;BMP280;9663;48.996;8.334;2023-08-30T08:45:35;99569.50;;;25.90
19061;BMP280;9663;48.996;8.334;2023-08-30T08:48:05;99569.72;;;25.87
19061;BMP280;9663;48.996;8.334;2023-08-30T08:50:34;99570.44;;;25.89
19061;BMP280;9663;48.996;8.334;2023-08-30T08:53:02;99558.88;;;25.93
19061;BMP280;9663;48.996;8.334;2023-08-30T08:55:29;99564.16;;;26.02
19061;BMP280;9663;48.996;8.334;2023-08-30T08:57:59;99569.03;;;26.18
19061;BMP280;9663;48.996;8.334;2023-08-30T09:00:27;99575.88;;;26.29
19061;BMP280;9663;48.996;8.334;2023-08-30T09:02:55;99578.59;;;26.39
19061;BMP280;9663;48.996;8.334;2023-08-30T09:05:22;99575.16;;;26.38
19061;BMP280;9663;48.996;8.334;2023-08-30T09:07:48;99572.78;;;26.35
19061;BMP280;9663;48.996;8.334;2023-08-30T09:10:16;99579.66;;;26.25
19061;BMP280;9663;48.996;8.334;2023-08-30T09:12:42;99576.69;;;26.19
19061;BMP280;9663;48.996;8.334;2023-08-30T09:15:08;99577.88;;;26.15
19061;BMP280;9663;48.996;8.334;2023-08-30T09:17:38;99577.06;;;26.15
19061;BMP280;9663;48.996;8.334;2023-08-30T09:20:12;99576.19;;;26.14
19061;BMP280;9663;48.996;8.334;2023-08-30T09:22:42;99578.81;;;26.14
19061;BMP280;9663;48.996;8.334;2023-08-30T09:25:22;99580.34;;;26.17
19061;BMP280;9663;48.996;8.334;2023-08-30T09:27:49;99577.50;;;26.20
19061;BMP280;9663;48.996;8.334;2023-08-30T09:30:21;99585.81;;;26.24
19061;BMP280;9663;48.996;8.334;2023-08-30T09:32:47;99575.38;;;26.35
19061;BMP280;9663;48.996;8.334;2023-08-30T09:35:12;99577.50;;;26.52
19061;BMP280;9663;48.996;8.334;2023-08-30T09:37:38;99574.50;;;26.67
19061;BMP280;9663;48.996;8.334;2023-08-30T09:40:05;99572.81;;;26.77
19061;BMP280;9663;48.996;8.334;2023-08-30T09:42:31;99565.59;;;26.81
19061;BMP280;9663;48.996;8.334;2023-08-30T09:44:57;99560.28;;;26.82
19061;BMP280;9663;48.996;8.334;2023-08-30T09:47:27;99565.34;;;26.84
19061;BMP280;9663;48.996;8.334;2023-08-30T09:49:55;99557.66;;;26.82
19061;BMP280;9663;48.996;8.334;2023-08-30T09:52:24;99561.44;;;26.89
19061;BMP280;9663;48.996;8.334;2023-08-30T09:54:52;99556.22;;;27.00
19061;BMP280;9663;48.996;8.334;2023-08-30T09:57:19;99560.41;;;27.12
19061;BMP280;9663;48.996;8.334;2023-08-30T09:59:48;99551.75;;;27.22
19061;BMP280;9663;48.996;8.334;2023-08-30T10:02:15;99547.69;;;27.29
19061;BMP280;9663;48.996;8.334;2023-08-30T10:04:42;99550.19;;;27.40
19061;BMP280;9663;48.996;8.334;2023-08-30T10:07:09;99553.34;;;27.54
19061;BMP280;9663;48.996;8.334;2023-08-30T10:09:38;99549.44;;;27.69
19061;BMP280;9663;48.996;8.334;2023-08-30T10:12:06;99549.88;;;27.74
19061;BMP280;9663;48.996;8.334;2023-08-30T10:14:32;99547.16;;;27.76
19061;BMP280;9663;48.996;8.334;2023-08-30T10:17:11;99537.03;;;27.82
19061;BMP280;9663;48.996;8.334;2023-08-30T10:19:38;99547.63;;;27.90
19061;BMP280;9663;48.996;8.334;2023-08-30T10:22:06;99534.47;;;27.92
19061;BMP280;9663;48.996;8.334;2023-08-30T10:24:54;99529.97;;;27.94
19061;BMP280;9663;48.996;8.334;2023-08-30T10:27:22;99528.53;;;28.10
19061;BMP280;9663;48.996;8.334;2023-08-30T10:29:50;99531.91;;;28.31
19061;BMP280;9663;48.996;8.334;2023-08-30T10:32:21;99520.94;;;28.46
19061;BMP280;9663;48.996;8.334;2023-08-30T10:34:49;99525.75;;;28.50
19061;BMP280;9663;48.996;8.334;2023-08-30T10:37:16;99517.66;;;28.44
19061;BMP280;9663;48.996;8.334;2023-08-30T10:39:43;99511.03;;;28.31
19061;BMP280;9663;48.996;8.334;2023-08-30T10:42:15;99498.94;;;28.20
19061;BMP280;9663;48.996;8.334;2023-08-30T10:47:40;99510.59;;;28.16
19061;BMP280;9663;48.996;8.334;2023-08-30T10:50:08;99512.53;;;28.33
19061;BMP280;9663;48.996;8.334;2023-08-30T10:52:35;99495.38;;;28.40
19061;BMP280;9663;48.996;8.334;2023-08-30T10:55:11;99494.59;;;28.49
19061;BMP280;9663;48.996;8.334;2023-08-30T10:57:41;99497.22;;;28.58
19061;BMP280;9663;48.996;8.334;2023-08-30T11:00:11;99495.88;;;28.64
19061;BMP280;9663;48.996;8.334;2023-08-30T11:02:46;99490.53;;;28.65
19061;BMP280;9663;48.996;8.334;2023-08-30T11:05:12;99482.03;;;28.63
19061;BMP280;9663;48.996;8.334;2023-08-30T11:07:38;99478.84;;;28.69
19061;BMP280;9663;48.996;8.334;2023-08-30T11:10:07;99478.03;;;28.78
19061;BMP280;9663;48.996;8.334;2023-08-30T11:12:34;99475.69;;;28.84
19061;BMP280;9663;48.996;8.334;2023-08-30T11:15:01;99475.69;;;28.84
19061;BMP280;9663;48.996;8.334;2023-08-30T11:17:28;99481.47;;;28.88
19061;BMP280;9663;48.996;8.334;2023-08-30T11:20:09;99469.63;;;28.84
19061;BMP280;9663;48.996;8.334;2023-08-30T11:22:46;99465.81;;;28.88
19061;BMP280;9663;48.996;8.334;2023-08-30T11:25:14;99469.31;;;29.15
19061;BMP280;9663;48.996;8.334;2023-08-30T11:27:41;99455.63;;;29.95
19061;BMP280;9663;48.996;8.334;2023-08-30T11:30:09;99454.28;;;31.04
19061;BMP280;9663;48.996;8.334;2023-08-30T11:32:39;99435.06;;;32.12
19061;BMP280;9663;48.996;8.334;2023-08-30T11:35:07;99442.50;;;32.56
19061;BMP280;9663;48.996;8.334;2023-08-30T11:37:33;99436.78;;;33.00
19061;BMP280;9663;48.996;8.334;2023-08-30T11:40:02;99421.41;;;33.59
19061;BMP280;9663;48.996;8.334;2023-08-30T11:42:31;99429.59;;;34.32
19061;BMP280;9663;48.996;8.334;2023-08-30T11:45:01;99426.31;;;34.97
19061;BMP280;9663;48.996;8.334;2023-08-30T11:47:30;99422.84;;;35.33
19061;BMP280;9663;48.996;8.334;2023-08-30T11:49:59;99425.50;;;35.62
19061;BMP280;9663;48.996;8.334;2023-08-30T11:52:26;99418.47;;;35.97
19061;BMP280;9663;48.996;8.334;2023-08-30T11:54:52;99413.19;;;36.32
19061;BMP280;9663;48.996;8.334;2023-08-30T11:57:19;99420.75;;;36.56
19061;BMP280;9663;48.996;8.334;2023-08-30T11:59:45;99420.84;;;36.28
19061;BMP280;9663;48.996;8.334;2023-08-30T12:02:16;99418.66;;;35.67
19061;BMP280;9663;48.996;8.334;2023-08-30T12:04:44;99409.22;;;35.44
19061;BMP280;9663;48.996;8.334;2023-08-30T12:07:24;99419.22;;;35.34
19061;BMP280;9663;48.996;8.334;2023-08-30T12:09:52;99413.16;;;35.48
19061;BMP280;9663;48.996;8.334;2023-08-30T12:12:18;99403.22;;;35.79
19061;BMP280;9663;48.996;8.334;2023-08-30T12:14:44;99396.75;;;36.16
19061;BMP280;9663;48.996;8.334;2023-08-30T12:17:10;99404.75;;;36.64
19061;BMP280;9663;48.996;8.334;2023-08-30T12:19:38;99397.72;;;37.19
19061;BMP280;9663;48.996;8.334;2023-08-30T12:22:07;99396.75;;;37.60
19061;BMP280;9663;48.996;8.334;2023-08-30T12:24:46;99390.00;;;37.58
19061;BMP280;9663;48.996;8.334;2023-08-30T12:27:13;99398.44;;;37.80
19061;BMP280;9663;48.996;8.334;2023-08-30T12:29:40;99392.47;;;37.99
19061;BMP280;9663;48.996;8.334;2023-08-30T12:32:07;99390.88;;;38.24
19061;BMP280;9663;48.996;8.334;2023-08-30T12:34:33;99388.50;;;38.48
19061;BMP280;9663;48.996;8.334;2023-08-30T12:36:59;99391.38;;;38.85
19061;BMP280;9663;48.996;8.334;2023-08-30T12:39:25;99381.72;;;39.42
19061;BMP280;9663;48.996;8.334;2023-08-30T12:41:51;99376.28;;;39.81
19061;BMP280;9663;48.996;8.334;2023-08-30T12:44:19;99380.63;;;40.06
19061;BMP280;9663;48.996;8.334;2023-08-30T12:46:45;99372.16;;;40.28
19061;BMP280;9663;48.996;8.334;2023-08-30T12:49:11;99378.66;;;40.63
19061;BMP280;9663;48.996;8.334;2023-08-30T12:51:37;99367.25;;;41.04
19061;BMP280;9663;48.996;8.334;2023-08-30T12:54:07;99365.97;;;41.24
19061;BMP280;9663;48.996;8.334;2023-08-30T12:56:33;99374.09;;;40.94
19061;BMP280;9663;48.996;8.334;2023-08-30T12:58:59;99381.31;;;40.63
19061;BMP280;9663;48.996;8.334;2023-08-30T13:01:24;99387.69;;;40.49
19061;BMP280;9663;48.996;8.334;2023-08-30T13:03:50;99378.34;;;40.46
19061;BMP280;9663;48.996;8.334;2023-08-30T13:06:16;99380.75;;;40.54
19061;BMP280;9663;48.996;8.334;2023-08-30T13:08:41;99376.84;;;40.57
19061;BMP280;9663;48.996;8.334;2023-08-30T13:11:07;99369.84;;;40.62
19061;BMP280;9663;48.996;8.334;2023-08-30T13:13:33;99379.50;;;40.57
19061;BMP280;9663;48.996;8.334;2023-08-30T13:16:00;99368.13;;;40.43
19061;BMP280;9663;48.996;8.334;2023-08-30T13:18:25;99367.34;;;39.62
19061;BMP280;9663;48.996;8.334;2023-08-30T13:20:54;99368.94;;;38.49
19061;BMP280;9663;48.996;8.334;2023-08-30T13:23:20;99364.00;;;37.27
19061;BMP280;9663;48.996;8.334;2023-08-30T13:25:48;99370.34;;;36.51
19061;BMP280;9663;48.996;8.334;2023-08-30T13:28:14;99356.25;;;36.24
19061;BMP280;9663;48.996;8.334;2023-08-30T13:30:47;99366.19;;;35.72
19061;BMP280;9663;48.996;8.334;2023-08-30T13:33:12;99364.56;;;34.99
19061;BMP280;9663;48.996;8.334;2023-08-30T13:35:42;99366.44;;;34.32
19061;BMP280;9663;48.996;8.334;2023-08-30T13:38:08;99371.56;;;33.73
19061;BMP280;9663;48.996;8.334;2023-08-30T13:40:34;99365.84;;;33.24
19061;BMP280;9663;48.996;8.334;2023-08-30T13:43:00;99360.81;;;32.83
19061;BMP280;9663;48.996;8.334;2023-08-30T13:45:26;99365.41;;;32.41
19061;BMP280;9663;48.996;8.334;2023-08-30T13:47:52;99371.25;;;32.04
19061;BMP280;9663;48.996;8.334;2023-08-30T13:50:20;99380.00;;;31.71
19061;BMP280;9663;48.996;8.334;2023-08-30T13:52:45;99383.84;;;31.44
19061;BMP280;9663;48.996;8.334;2023-08-30T13:55:11;99376.44;;;31.14
19061;BMP280;9663;48.996;8.334;2023-08-30T13:57:43;99383.53;;;30.79
19061;BMP280;9663;48.996;8.334;2023-08-30T14:00:09;99382.00;;;30.51
19061;BMP280;9663;48.996;8.334;2023-08-30T14:02:41;99383.00;;;30.33
19061;BMP280;9663;48.996;8.334;2023-08-30T14:05:08;99373.09;;;30.27
19061;BMP280;9663;48.996;8.334;2023-08-30T14:07:34;99377.03;;;30.40
19061;BMP280;9663;48.996;8.334;2023-08-30T14:10:00;99378.38;;;30.69
19061;BMP280;9663;48.996;8.334;2023-08-30T14:12:26;99378.81;;;31.00
19061;BMP280;9663;48.996;8.334;2023-08-30T14:14:51;99372.03;;;31.47
19061;BMP280;9663;48.996;8.334;2023-08-30T14:17:19;99372.91;;;32.05
19061;BMP280;9663;48.996;8.334;2023-08-30T14:19:44;99369.84;;;32.96
19061;BMP280;9663;48.996;8.334;2023-08-30T14:22:10;99357.53;;;33.89
19061;BMP280;9663;48.996;8.334;2023-08-30T14:24:36;99366.38;;;34.48
19061;BMP280;9663;48.996;8.334;2023-08-30T14:27:03;99367.56;;;34.97
19061;BMP280;9663;48.996;8.334;2023-08-30T14:29:28;99357.31;;;35.59